createdAt,value
2023-03-07T00:01:01.708Z,31.58
2023-03-07T00:03:28.497Z,30.85
2023-03-07T00:06:07.652Z,30.75
2023-03-07T00:08:34.763Z,31.02
2023-03-07T00:11:07.299Z,32.60
2023-03-07T00:13:35.662Z,32.42
2023-03-07T00:16:12.525Z,30.95
2023-03-07T00:18:39.308Z,32.67
2023-03-07T00:21:09.180Z,31.20
2023-03-07T00:23:38.463Z,32.55
2023-03-07T00:26:14.771Z,31.80
2023-03-07T00:28:41.788Z,31.35
2023-03-07T00:31:12.017Z,29.50
2023-03-07T00:33:39.754Z,32.28
2023-03-07T00:36:10.859Z,32.55
2023-03-07T00:38:38.224Z,34.58
2023-03-07T00:41:07.466Z,33.33
2023-03-07T00:43:35.261Z,33.13
2023-03-07T00:46:02.544Z,33.33
2023-03-07T00:48:29.820Z,33.83
2023-03-07T00:50:57.256Z,34.42
2023-03-07T00:53:25.005Z,34.25
2023-03-07T00:56:02.168Z,34.42
2023-03-07T00:58:31.074Z,33.08
2023-03-07T01:00:58.517Z,33.85
2023-03-07T01:03:25.961Z,33.65
2023-03-07T01:05:53.330Z,32.65
2023-03-07T01:08:20.291Z,32.60
2023-03-07T01:10:48.849Z,33.90
2023-03-07T01:13:17.035Z,33.10
2023-03-07T01:15:44.129Z,32.80
2023-03-07T01:18:11.632Z,31.42
2023-03-07T01:20:39.787Z,32.10
2023-03-07T01:23:06.810Z,32.65
2023-03-07T01:25:41.976Z,33.38
2023-03-07T01:28:12.973Z,31.50
2023-03-07T01:30:39.771Z,33.85
2023-03-07T01:33:06.562Z,30.02
2023-03-07T01:35:39.929Z,30.30
2023-03-07T01:38:07.167Z,28.83
2023-03-07T01:40:33.988Z,29.98
2023-03-07T01:43:24.182Z,28.92
2023-03-07T01:45:50.972Z,29.88
2023-03-07T01:48:17.973Z,28.70
2023-03-07T01:50:44.864Z,29.25
2023-03-07T01:53:11.906Z,28.00
2023-03-07T01:55:39.064Z,28.15
2023-03-07T01:58:10.063Z,27.70
2023-03-07T02:00:38.771Z,27.05
2023-03-07T02:03:15.027Z,27.90
2023-03-07T02:05:50.253Z,27.33
2023-03-07T02:08:18.800Z,26.30
2023-03-07T02:10:45.927Z,26.52
2023-03-07T02:13:12.928Z,25.95
2023-03-07T02:15:40.025Z,25.02
2023-03-07T02:18:07.767Z,27.65
2023-03-07T02:21:05.467Z,26.73
2023-03-07T02:23:47.008Z,26.40
2023-03-07T02:26:28.805Z,26.35
2023-03-07T02:31:23.004Z,23.33
2023-03-07T02:33:50.198Z,25.77
2023-03-07T02:36:22.212Z,23.48
2023-03-07T02:38:51.482Z,25.55
2023-03-07T02:41:24.344Z,26.33
2023-03-07T02:43:51.237Z,24.33
2023-03-07T02:46:18.261Z,24.98
2023-03-07T02:48:45.006Z,25.67
2023-03-07T02:51:12.197Z,24.05
2023-03-07T02:53:39.621Z,23.23
2023-03-07T02:56:07.299Z,20.80
2023-03-07T02:58:34.269Z,22.90
2023-03-07T03:01:01.257Z,22.92
2023-03-07T03:03:28.048Z,23.70
2023-03-07T03:05:54.878Z,23.00
2023-03-07T03:08:21.753Z,24.10
2023-03-07T03:10:54.018Z,23.90
2023-03-07T03:13:21.429Z,23.08
2023-03-07T03:15:48.779Z,22.92
2023-03-07T03:18:15.587Z,23.30
2023-03-07T03:20:42.923Z,22.10
2023-03-07T03:23:09.838Z,22.98
2023-03-07T03:25:39.205Z,21.55
2023-03-07T03:28:06.844Z,19.75
2023-03-07T03:30:36.121Z,20.73
2023-03-07T03:33:03.969Z,21.52
2023-03-07T03:35:30.851Z,21.75
2023-03-07T03:37:58.036Z,19.75
2023-03-07T03:40:25.095Z,19.17
2023-03-07T03:42:52.090Z,19.85
2023-03-07T03:45:19.666Z,19.70
2023-03-07T03:47:48.646Z,22.10
2023-03-07T03:50:15.577Z,19.73
2023-03-07T03:52:45.368Z,19.77
2023-03-07T03:55:12.414Z,20.08
2023-03-07T03:57:39.154Z,21.80
2023-03-07T04:00:09.053Z,18.55
2023-03-07T04:02:35.932Z,19.35
2023-03-07T04:05:02.729Z,17.55
2023-03-07T04:07:29.510Z,19.65
2023-03-07T04:09:56.273Z,19.10
2023-03-07T04:12:23.089Z,19.88
2023-03-07T04:14:49.912Z,17.50
2023-03-07T04:17:16.757Z,19.10
2023-03-07T04:19:43.523Z,18.10
2023-03-07T04:22:11.393Z,18.42
2023-03-07T04:24:38.264Z,17.05
2023-03-07T04:27:05.352Z,16.42
2023-03-07T04:29:32.158Z,15.57
2023-03-07T04:31:59.434Z,16.02
2023-03-07T04:34:26.243Z,16.33
2023-03-07T04:36:52.994Z,15.88
2023-03-07T04:39:19.790Z,15.48
2023-03-07T04:41:46.958Z,15.18
2023-03-07T04:44:15.571Z,14.02
2023-03-07T04:46:42.383Z,15.82
2023-03-07T04:49:09.354Z,14.93
2023-03-07T04:51:36.137Z,30.73
2023-03-07T04:54:02.895Z,25.65
2023-03-07T04:56:29.663Z,22.88
2023-03-07T04:58:56.398Z,28.70
2023-03-07T05:01:24.109Z,24.83
2023-03-07T05:03:50.966Z,21.98
2023-03-07T05:06:17.897Z,24.10
2023-03-07T05:08:44.653Z,30.58
2023-03-07T05:11:11.527Z,33.67
2023-03-07T05:13:38.303Z,23.55
2023-03-07T05:16:05.553Z,23.70
2023-03-07T05:18:32.305Z,21.50
2023-03-07T05:20:59.114Z,22.05
2023-03-07T05:23:27.276Z,22.83
2023-03-07T05:25:54.102Z,23.35
2023-03-07T05:28:21.189Z,22.30
2023-03-07T05:30:48.238Z,24.75
2023-03-07T05:33:15.714Z,27.67
2023-03-07T05:35:42.720Z,28.92
2023-03-07T05:38:10.020Z,22.20
2023-03-07T05:40:37.295Z,21.40
2023-03-07T05:43:04.983Z,21.00
2023-03-07T05:45:31.880Z,20.17
2023-03-07T05:47:58.661Z,22.88
2023-03-07T05:50:25.939Z,20.15
2023-03-07T05:52:53.279Z,20.10
2023-03-07T05:55:20.196Z,19.77
2023-03-07T05:57:46.968Z,17.17
2023-03-07T06:00:15.923Z,17.65
2023-03-07T06:02:42.975Z,17.55
2023-03-07T06:05:10.319Z,17.73
2023-03-07T06:07:37.142Z,18.13
2023-03-07T06:10:04.500Z,18.30
2023-03-07T06:12:31.309Z,18.75
2023-03-07T06:14:58.089Z,17.45
2023-03-07T06:17:24.834Z,18.60
2023-03-07T06:19:51.823Z,18.73
2023-03-07T06:22:18.599Z,19.00
2023-03-07T06:24:45.353Z,17.55
2023-03-07T06:27:12.240Z,17.23
2023-03-07T06:29:38.987Z,19.38
2023-03-07T06:32:06.144Z,20.63
2023-03-07T06:34:32.919Z,19.10
2023-03-07T06:37:00.116Z,19.27
2023-03-07T06:39:28.641Z,21.45
2023-03-07T06:41:56.386Z,19.85
2023-03-07T06:44:23.163Z,20.75
2023-03-07T06:46:49.970Z,19.17
2023-03-07T06:49:16.804Z,18.63
2023-03-07T06:51:43.618Z,18.08
2023-03-07T06:54:10.470Z,18.73
2023-03-07T06:56:37.293Z,23.25
2023-03-07T06:59:04.255Z,22.08
2023-03-07T07:01:31.319Z,21.13
2023-03-07T07:03:58.410Z,19.60
2023-03-07T07:06:25.223Z,20.88
2023-03-07T07:08:58.613Z,20.30
2023-03-07T07:11:26.008Z,19.83
2023-03-07T07:13:52.804Z,21.88
2023-03-07T07:16:19.939Z,21.00
2023-03-07T07:18:46.952Z,20.45
2023-03-07T07:21:13.771Z,20.42
2023-03-07T07:23:40.568Z,18.90
2023-03-07T07:26:07.497Z,21.45
2023-03-07T07:28:34.414Z,20.95
2023-03-07T07:31:04.190Z,18.10
2023-03-07T07:33:31.982Z,18.60
2023-03-07T07:35:58.969Z,20.05
2023-03-07T07:38:25.809Z,22.40
2023-03-07T07:40:52.640Z,23.00
2023-03-07T07:43:19.405Z,21.60
2023-03-07T07:45:46.310Z,24.75
2023-03-07T07:48:13.113Z,23.80
2023-03-07T07:50:39.944Z,23.48
2023-03-07T07:53:07.083Z,22.08
2023-03-07T07:55:33.975Z,30.10
2023-03-07T07:58:00.698Z,26.30
2023-03-07T08:00:27.525Z,23.65
2023-03-07T08:02:54.366Z,23.85
2023-03-07T08:05:22.831Z,22.02
2023-03-07T08:07:50.609Z,22.42
2023-03-07T08:10:18.253Z,20.50
2023-03-07T08:12:48.080Z,21.23
2023-03-07T08:15:17.254Z,18.08
2023-03-07T08:17:44.738Z,18.60
2023-03-07T08:20:11.858Z,21.20
2023-03-07T08:22:39.502Z,18.17
2023-03-07T08:25:08.241Z,21.75
2023-03-07T08:27:35.017Z,20.17
2023-03-07T08:30:01.859Z,17.45
2023-03-07T08:32:29.110Z,16.35
2023-03-07T08:34:55.932Z,22.35
2023-03-07T08:37:22.680Z,22.45
2023-03-07T08:39:49.524Z,16.55
2023-03-07T08:42:16.346Z,17.65
2023-03-07T08:44:43.197Z,18.27
2023-03-07T08:47:11.618Z,20.15
2023-03-07T08:49:38.491Z,19.08
2023-03-07T08:52:05.523Z,18.17
2023-03-07T08:54:32.666Z,18.85
2023-03-07T08:57:00.554Z,18.98
2023-03-07T08:59:27.510Z,18.20
2023-03-07T09:01:55.714Z,17.98
2023-03-07T09:04:22.571Z,17.48
2023-03-07T09:06:49.442Z,17.75
2023-03-07T09:09:16.326Z,17.48
2023-03-07T09:11:43.167Z,17.45
2023-03-07T09:14:10.018Z,20.17
2023-03-07T09:16:36.839Z,19.23
2023-03-07T09:19:04.034Z,19.98
2023-03-07T09:21:30.796Z,19.02
2023-03-07T09:23:57.957Z,37.85
2023-03-07T09:26:24.780Z,20.48
2023-03-07T09:28:51.604Z,21.88
2023-03-07T09:31:18.511Z,19.63
2023-03-07T09:33:46.940Z,26.02
2023-03-07T09:36:16.169Z,19.00
2023-03-07T09:38:42.968Z,18.02
2023-03-07T09:41:28.521Z,18.92
2023-03-07T09:44:01.239Z,17.05
2023-03-07T09:46:48.078Z,17.98
2023-03-07T09:49:28.795Z,21.20
2023-03-07T09:51:59.467Z,15.38
2023-03-07T09:54:43.697Z,16.55
2023-03-07T09:57:39.356Z,15.32
2023-03-07T10:00:40.700Z,17.27
2023-03-07T10:03:37.913Z,11.65
2023-03-07T10:06:39.011Z,17.63
2023-03-07T10:09:12.276Z,15.57
2023-03-07T10:11:48.144Z,16.85
2023-03-07T10:14:39.682Z,16.50
2023-03-07T10:17:39.890Z,15.80
2023-03-07T10:20:31.505Z,16.20
2023-03-07T10:23:22.329Z,14.93
2023-03-07T10:26:13.824Z,14.30
2023-03-07T10:28:44.417Z,16.35
2023-03-07T10:31:34.933Z,15.98
2023-03-07T10:34:31.336Z,22.10
2023-03-07T10:37:20.149Z,16.08
2023-03-07T10:39:46.852Z,15.27
2023-03-07T10:42:16.488Z,16.92
2023-03-07T10:44:45.384Z,16.52
2023-03-07T10:47:23.661Z,17.58
2023-03-07T10:49:54.984Z,22.42
2023-03-07T10:52:41.467Z,18.27
2023-03-07T10:55:31.226Z,16.08
2023-03-07T10:58:16.340Z,16.67
2023-03-07T11:00:47.426Z,16.05
2023-03-07T11:03:53.258Z,17.65
2023-03-07T11:06:49.411Z,16.60
2023-03-07T11:09:35.807Z,14.38
2023-03-07T11:12:05.622Z,14.45
2023-03-07T11:14:58.227Z,15.57
2023-03-07T11:17:27.544Z,15.90
2023-03-07T11:19:58.698Z,16.75
2023-03-07T11:22:35.873Z,14.90
2023-03-07T11:25:26.657Z,16.27
2023-03-07T11:27:55.993Z,15.20
2023-03-07T11:30:28.987Z,16.52
2023-03-07T11:33:20.706Z,18.50
2023-03-07T11:35:54.713Z,16.33
2023-03-07T11:38:32.154Z,17.23
2023-03-07T11:41:17.267Z,16.60
2023-03-07T11:43:52.369Z,17.48
2023-03-07T11:46:41.084Z,16.60
2023-03-07T11:49:29.520Z,17.10
2023-03-07T11:52:02.282Z,15.50
2023-03-07T11:54:57.932Z,16.15
2023-03-07T11:57:39.316Z,16.38
2023-03-07T12:00:30.603Z,16.77
2023-03-07T12:03:03.029Z,18.25
2023-03-07T12:05:49.167Z,22.15
2023-03-07T12:08:29.151Z,17.83
2023-03-07T12:11:04.630Z,16.73
2023-03-07T12:13:49.994Z,17.42
2023-03-07T12:16:16.751Z,17.73
2023-03-07T12:18:57.169Z,17.70
2023-03-07T12:21:35.887Z,17.10
2023-03-07T12:24:23.472Z,18.63
2023-03-07T12:27:13.209Z,17.77
2023-03-07T12:29:51.060Z,18.27
2023-03-07T12:32:27.834Z,15.93
2023-03-07T12:35:16.501Z,17.95
2023-03-07T12:37:49.386Z,16.55
2023-03-07T12:40:51.559Z,15.93
2023-03-07T12:43:21.261Z,14.77
2023-03-07T12:45:53.887Z,19.38
2023-03-07T12:48:33.436Z,18.10
2023-03-07T12:51:26.345Z,32.10
